»·PEaware :: N592BC KPHX-KLAX

N592BC :: KPHX-KLAX

FLIGHT INFORMATION

Flight Status: Arrived
Operator: Privately registered:
United States
More flights under this callsign
Pilot: Roger W. (24)
Aircraft: BOEING 737-800
(B738)
More flights by this aircraft type
Origin: KPHX Phoenix Sky Harbor Intl
United States
Destination: KLAX Los Angeles Intl
United States
More flights between these airports :: More routes between these airports
Route: +IZZZO6 MESSI ESTWD HLYWD1
File this flight plan on PilotEdge
Remarks: KLAX SOUTH CARGO
Altitude:
(Current/Filed)
32,000ft
Speed:
(Current/Filed)
457kts
Departed: 20-Apr-18 07:56 PM
Arrived: 20-Apr-18 08:52 PM
Distance/Time
Traveled:
321nm/0:56
Distance/Time
To Go:
Arrived

Flight Plot

Page will automatically refresh every two minutes.

Flight plan parsing failed; only flown route is shown


Map Options




Map Legend


Flown Route
Filed Route
Departure Airport
Arrival Airport
Navaid (VOR, NDB)
Fix

Horizontal Profiles

Position Reports

Time Latitude Longitude Heading Altitude Ground
Speed
20-Apr-18 19:28 33.437708 -111.993645 270 1146ft 0kts
20-Apr-18 19:29 33.437708 -111.993645 270 1146ft 0kts
20-Apr-18 19:30 33.437708 -111.993645 270 1146ft 0kts
20-Apr-18 19:31 33.437708 -111.993645 270 1146ft 0kts
20-Apr-18 19:32 33.437708 -111.993645 270 1146ft 0kts
20-Apr-18 19:33 33.437708 -111.993645 270 1146ft 0kts
20-Apr-18 19:34 33.437708 -111.993645 270 1146ft 0kts
20-Apr-18 19:35 33.437708 -111.993645 270 1146ft 0kts
20-Apr-18 19:36 33.437708 -111.993645 270 1146ft 0kts
20-Apr-18 19:37 33.437708 -111.993645 270 1146ft 0kts
20-Apr-18 19:38 33.437708 -111.993645 270 1146ft 0kts
20-Apr-18 19:39 33.437708 -111.993645 270 1146ft 0kts
20-Apr-18 19:40 33.437708 -111.993645 270 1146ft 0kts
20-Apr-18 19:41 33.437708 -111.993645 270 1146ft 0kts
20-Apr-18 19:42 33.437708 -111.993645 270 1146ft 0kts
20-Apr-18 19:43 33.437708 -111.993645 270 1146ft 0kts
20-Apr-18 19:44 33.437708 -111.993645 270 1146ft 0kts
20-Apr-18 19:45 33.437710 -111.993499 264 1146ft 2kts
20-Apr-18 19:46 33.438208 -111.992838 192 1146ft 2kts
20-Apr-18 19:47 33.438536 -111.992814 180 1146ft 0kts
20-Apr-18 19:48 33.438536 -111.992814 180 1146ft 0kts
20-Apr-18 19:49 33.438536 -111.992814 180 1146ft 0kts
20-Apr-18 19:50 33.438536 -111.992814 180 1146ft 0kts
20-Apr-18 19:51 33.438754 -111.992336 357 1146ft 7kts
20-Apr-18 19:52 33.439893 -111.990471 313 1146ft 0kts
20-Apr-18 19:53 33.439894 -111.990471 313 1146ft 0kts
20-Apr-18 19:54 33.440694 -111.991543 286 1146ft 11kts
20-Apr-18 19:55 33.440873 -112.023818 268 2104ft 171kts
20-Apr-18 19:56 33.441779 -112.091131 272 4788ft 239kts
20-Apr-18 19:57 33.443389 -112.178282 273 7922ft 274kts
20-Apr-18 19:58 33.444487 -112.268788 274 10526ft 274kts
20-Apr-18 19:59 33.445917 -112.365592 276 13301ft 323kts
20-Apr-18 20:00 33.447923 -112.483159 277 15822ft 373kts
20-Apr-18 20:01 33.450287 -112.610913 278 18609ft 397kts
20-Apr-18 20:02 33.452077 -112.744295 276 21069ft 403kts
20-Apr-18 20:03 33.477359 -112.870445 296 21063ft 389kts
20-Apr-18 20:04 33.519419 -112.990324 296 21060ft 391kts
20-Apr-18 20:05 33.561530 -113.111034 295 21884ft 395kts
20-Apr-18 20:06 33.604350 -113.234466 295 24127ft 400kts
20-Apr-18 20:07 33.646736 -113.358259 294 25970ft 404kts
20-Apr-18 20:08 33.690584 -113.483554 293 27450ft 407kts
20-Apr-18 20:09 33.733087 -113.607771 293 28920ft 409kts
20-Apr-18 20:10 33.777397 -113.737377 293 29598ft 421kts
20-Apr-18 20:11 33.821594 -113.867141 292 30643ft 421kts
20-Apr-18 20:12 33.864678 -113.994724 292 31870ft 407kts
20-Apr-18 20:13 33.907676 -114.122106 291 32002ft 413kts
20-Apr-18 20:14 33.929705 -114.258598 282 32046ft 415kts
20-Apr-18 20:15 33.952804 -114.394643 283 32039ft 416kts
20-Apr-18 20:16 33.975673 -114.530931 282 32034ft 415kts
20-Apr-18 20:17 33.998499 -114.667948 282 32043ft 417kts
20-Apr-18 20:18 34.021336 -114.806018 283 32044ft 422kts
20-Apr-18 20:19 34.044236 -114.945509 283 32048ft 424kts
20-Apr-18 20:20 34.067037 -115.085238 283 32058ft 426kts
20-Apr-18 20:21 34.089810 -115.225627 283 32067ft 427kts
20-Apr-18 20:22 34.112571 -115.367006 282 32078ft 429kts
20-Apr-18 20:23 34.135144 -115.508301 282 32091ft 430kts
20-Apr-18 20:24 34.157511 -115.649998 281 32097ft 430kts
20-Apr-18 20:25 34.154603 -115.794095 261 32124ft 437kts
20-Apr-18 20:26 34.139698 -115.939197 265 32145ft 436kts
20-Apr-18 20:27 34.125519 -116.084147 265 32159ft 435kts
20-Apr-18 20:28 34.111140 -116.229588 265 32142ft 436kts
20-Apr-18 20:29 34.096191 -116.374464 266 29476ft 429kts
20-Apr-18 20:30 34.081688 -116.509521 266 28326ft 398kts
20-Apr-18 20:31 34.068484 -116.638684 267 27001ft 386kts
20-Apr-18 20:32 34.056671 -116.765897 267 25188ft 377kts
20-Apr-18 20:33 34.044842 -116.891067 266 23418ft 375kts
20-Apr-18 20:34 34.028835 -117.014363 265 21552ft 367kts
20-Apr-18 20:35 34.014413 -117.134497 266 19674ft 358kts
20-Apr-18 20:36 34.000397 -117.252011 266 17761ft 350kts
20-Apr-18 20:37 33.986535 -117.368857 265 15392ft 354kts
20-Apr-18 20:38 33.975057 -117.466118 265 13744ft 345kts
20-Apr-18 20:39 33.987652 -117.574683 286 11906ft 322kts
20-Apr-18 20:40 34.006038 -117.694230 271 10304ft 296kts
20-Apr-18 20:41 33.996546 -117.789119 264 9123ft 282kts
20-Apr-18 20:42 33.987368 -117.883001 263 7662ft 279kts
20-Apr-18 20:43 33.978380 -117.974416 263 6300ft 268kts
20-Apr-18 20:44 33.970990 -118.056649 263 5153ft 225kts
20-Apr-18 20:45 33.965050 -118.114483 263 4248ft 192kts
20-Apr-18 20:46 33.959272 -118.170500 263 3462ft 162kts
20-Apr-18 20:47 33.953845 -118.224005 263 2721ft 160kts
20-Apr-18 20:48 33.948416 -118.277051 262 1869ft 158kts
20-Apr-18 20:49 33.943225 -118.328043 261 1043ft 143kts
20-Apr-18 20:50 33.938415 -118.374682 261 312ft 137kts
20-Apr-18 20:51 33.935958 -118.398871 262 137ft 28kts
20-Apr-18 20:52 33.934635 -118.402477 224 137ft 3kts
20-Apr-18 20:53 33.933150 -118.403009 173 137ft 0kts

Navigation Log

Ident Type
Flight plan parsing failed, navigation log unavailable